Portada
METAR-TAF:

METAR-TAF

Aeroports :

Logronyo, Espanya

latitud: 42-27N, longitud: 002-20W, altitud: 353 m

Observació

L'informe es va fer fa 22 minuts, a les 22:30 UTC
Vent 1 kt amb direcció variable
Temperatura 21°C
Humitat 56%
Pressió 1017 hPa
Visibilitat 10 km o més

METAR: LELO 242230Z AUTO VRB01KT 9999 NCD 21/12 Q1017

Hora: 00:52 (22:52 UTC)

Pronòstic

L'informe es va fer fa 5 hores i 52 minuts, a les 17:00 UTC
Pronòstic vàlid del 24 a les 18 UTC al 25 a les 03 UTC
Vent 10 kt del Est
Visibilitat 10 km o més
sense núvols per sota de 1500 mi sense presència de cumulonimbus.

TAF: LELO 241700Z 2418/2503 09010KT CAVOK

Observacions i pronòstics meteorològics de més de 4000 aeroports (METAR i TAF).

Les estacions disponibles són els punts grocs i vermells al mapa.

Posi el ratolí al punt desitjat per veure el nom de l'estació.

Feu clic per veure les observacions i els pronòstics meteorològics.

Per canviar el mapa: feu clic els botons verds amb una creu de color negre per apropar; al botó verd amb un guió per allunyar la imatge; o en les fletxes verdes per a mapes adjacents.


METAR-TAF: